sensor_id;sensor_type;location;lat;lon;timestamp;pressure;altitude;pressure_sealevel;temperature;humidity
20622;BME280;10470;42.670;23.354;2022-11-20T00:00:50;94131.72;;;15.33;100.00
20622;BME280;10470;42.670;23.354;2022-11-20T00:03:15;94158.69;;;15.46;100.00
20622;BME280;10470;42.670;23.354;2022-11-20T00:05:41;94178.38;;;15.39;100.00
20622;BME280;10470;42.670;23.354;2022-11-20T00:08:06;94168.63;;;15.32;100.00
20622;BME280;10470;42.670;23.354;2022-11-20T00:10:32;94170.06;;;15.22;100.00
20622;BME280;10470;42.670;23.354;2022-11-20T00:13:01;94114.34;;;14.50;100.00
20622;BME280;10470;42.670;23.354;2022-11-20T00:15:26;94167.72;;;14.98;100.00
20622;BME280;10470;42.670;23.354;2022-11-20T00:17:52;94154.94;;;14.83;100.00
20622;BME280;10470;42.670;23.354;2022-11-20T00:20:17;94171.19;;;14.93;100.00
20622;BME280;10470;42.670;23.354;2022-11-20T00:22:43;94146.78;;;14.95;100.00
20622;BME280;10470;42.670;23.354;2022-11-20T00:25:08;94133.75;;;15.61;100.00
20622;BME280;10470;42.670;23.354;2022-11-20T00:27:34;94145.34;;;15.11;100.00
20622;BME280;10470;42.670;23.354;2022-11-20T00:30:00;94136.03;;;14.91;100.00
20622;BME280;10470;42.670;23.354;2022-11-20T00:32:25;94083.50;;;14.55;100.00
20622;BME280;10470;42.670;23.354;2022-11-20T00:34:51;94139.78;;;14.94;100.00
20622;BME280;10470;42.670;23.354;2022-11-20T00:37:17;94131.38;;;15.14;100.00
20622;BME280;10470;42.670;23.354;2022-11-20T00:39:43;94117.63;;;15.03;100.00
20622;BME280;10470;42.670;23.354;2022-11-20T00:42:08;94052.09;;;14.56;100.00
20622;BME280;10470;42.670;23.354;2022-11-20T00:44:34;94112.31;;;14.82;100.00
20622;BME280;10470;42.670;23.354;2022-11-20T00:46:59;94124.41;;;15.19;100.00
20622;BME280;10470;42.670;23.354;2022-11-20T00:49:25;94139.97;;;15.44;100.00
20622;BME280;10470;42.670;23.354;2022-11-20T00:51:51;94143.19;;;15.43;100.00
20622;BME280;10470;42.670;23.354;2022-11-20T00:54:17;94176.53;;;15.79;100.00
20622;BME280;10470;42.670;23.354;2022-11-20T00:56:42;94154.06;;;15.86;100.00
20622;BME280;10470;42.670;23.354;2022-11-20T00:59:09;94150.09;;;16.37;100.00
20622;BME280;10470;42.670;23.354;2022-11-20T01:01:35;94123.75;;;16.70;100.00
20622;BME280;10470;42.670;23.354;2022-11-20T01:04:01;94164.03;;;16.62;100.00
20622;BME280;10470;42.670;23.354;2022-11-20T01:06:32;94156.56;;;16.68;100.00
20622;BME280;10470;42.670;23.354;2022-11-20T01:09:01;94154.44;;;17.14;100.00
20622;BME280;10470;42.670;23.354;2022-11-20T01:11:29;94154.41;;;17.19;100.00
20622;BME280;10470;42.670;23.354;2022-11-20T01:13:56;94169.47;;;17.13;100.00
20622;BME280;10470;42.670;23.354;2022-11-20T01:16:24;94146.50;;;17.57;100.00
20622;BME280;10470;42.670;23.354;2022-11-20T01:18:54;94136.13;;;17.75;100.00
20622;BME280;10470;42.670;23.354;2022-11-20T01:21:23;94155.41;;;18.16;100.00
20622;BME280;10470;42.670;23.354;2022-11-20T01:23:49;94137.16;;;18.07;100.00
20622;BME280;10470;42.670;23.354;2022-11-20T01:26:21;94102.59;;;18.06;100.00
20622;BME280;10470;42.670;23.354;2022-11-20T01:28:47;94123.34;;;18.13;100.00
20622;BME280;10470;42.670;23.354;2022-11-20T01:31:25;94167.69;;;18.15;100.00
20622;BME280;10470;42.670;23.354;2022-11-20T01:33:52;94141.03;;;17.93;100.00
20622;BME280;10470;42.670;23.354;2022-11-20T01:36:20;94137.25;;;17.96;100.00
20622;BME280;10470;42.670;23.354;2022-11-20T01:38:46;94131.25;;;17.92;100.00
20622;BME280;10470;42.670;23.354;2022-11-20T01:41:13;94137.75;;;17.53;100.00
20622;BME280;10470;42.670;23.354;2022-11-20T01:44:00;94132.78;;;17.40;100.00
20622;BME280;10470;42.670;23.354;2022-11-20T01:46:26;94138.25;;;17.52;100.00
20622;BME280;10470;42.670;23.354;2022-11-20T01:48:58;94109.84;;;17.27;100.00
20622;BME280;10470;42.670;23.354;2022-11-20T01:51:32;94107.97;;;17.52;100.00
20622;BME280;10470;42.670;23.354;2022-11-20T01:54:02;94119.69;;;17.58;100.00
20622;BME280;10470;42.670;23.354;2022-11-20T01:56:31;94096.88;;;17.16;100.00
20622;BME280;10470;42.670;23.354;2022-11-20T01:59:02;94135.56;;;17.35;100.00
20622;BME280;10470;42.670;23.354;2022-11-20T02:01:30;94103.97;;;17.47;100.00
20622;BME280;10470;42.670;23.354;2022-11-20T02:03:56;94109.84;;;17.68;100.00
20622;BME280;10470;42.670;23.354;2022-11-20T02:06:26;94129.34;;;17.76;100.00
20622;BME280;10470;42.670;23.354;2022-11-20T02:08:54;94104.53;;;17.81;100.00
20622;BME280;10470;42.670;23.354;2022-11-20T02:11:20;94135.44;;;17.63;100.00
20622;BME280;10470;42.670;23.354;2022-11-20T02:13:46;94127.06;;;17.38;100.00
20622;BME280;10470;42.670;23.354;2022-11-20T02:16:25;94146.44;;;17.16;100.00
20622;BME280;10470;42.670;23.354;2022-11-20T02:18:55;94145.94;;;17.12;100.00
20622;BME280;10470;42.670;23.354;2022-11-20T02:21:28;94141.41;;;17.20;100.00
20622;BME280;10470;42.670;23.354;2022-11-20T02:24:15;94138.69;;;17.09;100.00
20622;BME280;10470;42.670;23.354;2022-11-20T02:26:54;94129.53;;;16.84;100.00
20622;BME280;10470;42.670;23.354;2022-11-20T02:29:33;94140.72;;;17.02;100.00
20622;BME280;10470;42.670;23.354;2022-11-20T02:32:01;94128.63;;;17.28;100.00
20622;BME280;10470;42.670;23.354;2022-11-20T02:34:28;94140.69;;;17.14;100.00
20622;BME280;10470;42.670;23.354;2022-11-20T02:36:54;94129.50;;;16.95;100.00
20622;BME280;10470;42.670;23.354;2022-11-20T02:39:24;94133.97;;;17.98;100.00
20622;BME280;10470;42.670;23.354;2022-11-20T02:41:52;94160.25;;;18.65;100.00
20622;BME280;10470;42.670;23.354;2022-11-20T02:44:18;94151.88;;;18.21;100.00
20622;BME280;10470;42.670;23.354;2022-11-20T02:46:44;94147.25;;;18.60;100.00
20622;BME280;10470;42.670;23.354;2022-11-20T02:49:09;94154.66;;;18.46;100.00
20622;BME280;10470;42.670;23.354;2022-11-20T02:51:35;94151.97;;;18.40;100.00
20622;BME280;10470;42.670;23.354;2022-11-20T02:54:01;94164.78;;;18.38;100.00
20622;BME280;10470;42.670;23.354;2022-11-20T02:56:26;94163.25;;;18.37;100.00
20622;BME280;10470;42.670;23.354;2022-11-20T02:58:52;94169.41;;;18.54;100.00
20622;BME280;10470;42.670;23.354;2022-11-20T03:01:18;94142.69;;;18.68;100.00
20622;BME280;10470;42.670;23.354;2022-11-20T03:03:43;94158.28;;;18.65;100.00
20622;BME280;10470;42.670;23.354;2022-11-20T03:06:09;94169.81;;;18.64;100.00
20622;BME280;10470;42.670;23.354;2022-11-20T03:08:34;94201.09;;;18.72;100.00
20622;BME280;10470;42.670;23.354;2022-11-20T03:11:05;94189.97;;;18.83;100.00
20622;BME280;10470;42.670;23.354;2022-11-20T03:13:31;94185.53;;;18.74;100.00
20622;BME280;10470;42.670;23.354;2022-11-20T03:15:57;94181.09;;;18.66;100.00
20622;BME280;10470;42.670;23.354;2022-11-20T03:18:23;94178.50;;;18.73;100.00
20622;BME280;10470;42.670;23.354;2022-11-20T03:20:48;94181.78;;;18.72;100.00
20622;BME280;10470;42.670;23.354;2022-11-20T03:23:14;94206.03;;;18.85;100.00
20622;BME280;10470;42.670;23.354;2022-11-20T03:25:39;94209.19;;;18.64;100.00
20622;BME280;10470;42.670;23.354;2022-11-20T03:28:05;94189.00;;;18.50;100.00
20622;BME280;10470;42.670;23.354;2022-11-20T03:30:31;94193.19;;;18.57;100.00
20622;BME280;10470;42.670;23.354;2022-11-20T03:32:56;94207.88;;;18.76;100.00
20622;BME280;10470;42.670;23.354;2022-11-20T03:35:22;94212.13;;;18.72;100.00
20622;BME280;10470;42.670;23.354;2022-11-20T03:37:48;94197.41;;;18.64;100.00
20622;BME280;10470;42.670;23.354;2022-11-20T03:40:13;94217.03;;;18.60;100.00
20622;BME280;10470;42.670;23.354;2022-11-20T03:42:39;94205.22;;;18.60;100.00
20622;BME280;10470;42.670;23.354;2022-11-20T03:45:12;94207.78;;;18.52;100.00
20622;BME280;10470;42.670;23.354;2022-11-20T03:47:38;94217.03;;;18.54;100.00
20622;BME280;10470;42.670;23.354;2022-11-20T03:50:04;94217.41;;;18.70;100.00
20622;BME280;10470;42.670;23.354;2022-11-20T03:52:30;94210.53;;;18.52;100.00
20622;BME280;10470;42.670;23.354;2022-11-20T03:54:56;94203.69;;;18.64;100.00
20622;BME280;10470;42.670;23.354;2022-11-20T03:57:21;94219.66;;;18.41;100.00
20622;BME280;10470;42.670;23.354;2022-11-20T03:59:47;94206.09;;;18.43;100.00
20622;BME280;10470;42.670;23.354;2022-11-20T04:02:13;94216.09;;;18.46;100.00
20622;BME280;10470;42.670;23.354;2022-11-20T04:04:38;94199.47;;;18.58;100.00
20622;BME280;10470;42.670;23.354;2022-11-20T04:07:04;94214.47;;;18.62;100.00
20622;BME280;10470;42.670;23.354;2022-11-20T04:09:30;94210.00;;;18.59;100.00
20622;BME280;10470;42.670;23.354;2022-11-20T04:11:55;94212.78;;;18.53;100.00
20622;BME280;10470;42.670;23.354;2022-11-20T04:14:21;94228.13;;;18.49;100.00
20622;BME280;10470;42.670;23.354;2022-11-20T04:16:47;94211.22;;;18.64;100.00
20622;BME280;10470;42.670;23.354;2022-11-20T04:19:15;94211.13;;;18.45;100.00
20622;BME280;10470;42.670;23.354;2022-11-20T04:21:41;94208.56;;;18.47;100.00
20622;BME280;10470;42.670;23.354;2022-11-20T04:24:07;94217.88;;;18.44;100.00
20622;BME280;10470;42.670;23.354;2022-11-20T04:26:33;94214.66;;;18.40;100.00
20622;BME280;10470;42.670;23.354;2022-11-20T04:29:00;94215.38;;;18.46;100.00
20622;BME280;10470;42.670;23.354;2022-11-20T04:31:29;94217.53;;;18.23;100.00
20622;BME280;10470;42.670;23.354;2022-11-20T04:33:55;94223.72;;;18.34;100.00
20622;BME280;10470;42.670;23.354;2022-11-20T04:36:23;94217.88;;;18.44;100.00
20622;BME280;10470;42.670;23.354;2022-11-20T04:39:01;94240.16;;;18.51;100.00
20622;BME280;10470;42.670;23.354;2022-11-20T04:41:29;94234.69;;;18.46;100.00
20622;BME280;10470;42.670;23.354;2022-11-20T04:43:57;94168.31;;;17.97;100.00
20622;BME280;10470;42.670;23.354;2022-11-20T04:46:31;94213.72;;;18.31;100.00
20622;BME280;10470;42.670;23.354;2022-11-20T04:49:05;94207.63;;;18.39;100.00
20622;BME280;10470;42.670;23.354;2022-11-20T04:51:31;94214.97;;;18.30;100.00
20622;BME280;10470;42.670;23.354;2022-11-20T04:53:57;94219.84;;;18.19;100.00
20622;BME280;10470;42.670;23.354;2022-11-20T04:56:23;94193.19;;;18.27;100.00
20622;BME280;10470;42.670;23.354;2022-11-20T04:58:49;94198.91;;;18.34;100.00
20622;BME280;10470;42.670;23.354;2022-11-20T05:01:17;94192.00;;;18.17;100.00
20622;BME280;10470;42.670;23.354;2022-11-20T05:03:43;94206.31;;;18.15;100.00
20622;BME280;10470;42.670;23.354;2022-11-20T05:06:14;94187.69;;;18.27;100.00
20622;BME280;10470;42.670;23.354;2022-11-20T05:08:40;94192.06;;;18.41;100.00
20622;BME280;10470;42.670;23.354;2022-11-20T05:11:13;94183.25;;;18.12;100.00
20622;BME280;10470;42.670;23.354;2022-11-20T05:13:39;94191.72;;;18.20;100.00
20622;BME280;10470;42.670;23.354;2022-11-20T05:16:11;94175.03;;;18.07;100.00
20622;BME280;10470;42.670;23.354;2022-11-20T05:18:37;94174.78;;;18.05;100.00
20622;BME280;10470;42.670;23.354;2022-11-20T05:21:02;94193.34;;;18.04;100.00
20622;BME280;10470;42.670;23.354;2022-11-20T05:23:30;94171.78;;;18.03;100.00
20622;BME280;10470;42.670;23.354;2022-11-20T05:25:57;94173.34;;;17.98;100.00
20622;BME280;10470;42.670;23.354;2022-11-20T05:28:23;94151.59;;;17.89;100.00
20622;BME280;10470;42.670;23.354;2022-11-20T05:30:49;94149.66;;;17.73;100.00
20622;BME280;10470;42.670;23.354;2022-11-20T05:33:15;94139.97;;;17.60;100.00
20622;BME280;10470;42.670;23.354;2022-11-20T05:35:41;94161.84;;;17.41;100.00
20622;BME280;10470;42.670;23.354;2022-11-20T05:38:07;94151.91;;;17.21;100.00
20622;BME280;10470;42.670;23.354;2022-11-20T05:40:32;94194.91;;;17.30;100.00
20622;BME280;10470;42.670;23.354;2022-11-20T05:42:58;94176.41;;;17.25;100.00
20622;BME280;10470;42.670;23.354;2022-11-20T05:45:24;94175.44;;;17.28;100.00
20622;BME280;10470;42.670;23.354;2022-11-20T05:47:49;94156.50;;;17.02;100.00
20622;BME280;10470;42.670;23.354;2022-11-20T05:50:15;94178.44;;;17.19;100.00
20622;BME280;10470;42.670;23.354;2022-11-20T05:52:41;94173.22;;;17.15;100.00
20622;BME280;10470;42.670;23.354;2022-11-20T05:55:06;94169.50;;;17.07;100.00
20622;BME280;10470;42.670;23.354;2022-11-20T05:57:32;94171.25;;;17.05;100.00
20622;BME280;10470;42.670;23.354;2022-11-20T05:59:58;94172.25;;;17.01;100.00
20622;BME280;10470;42.670;23.354;2022-11-20T06:02:23;94173.22;;;17.04;100.00
20622;BME280;10470;42.670;23.354;2022-11-20T06:04:49;94171.22;;;17.10;100.00
20622;BME280;10470;42.670;23.354;2022-11-20T06:07:14;94172.97;;;17.13;100.00
20622;BME280;10470;42.670;23.354;2022-11-20T06:09:40;94172.47;;;17.15;100.00
20622;BME280;10470;42.670;23.354;2022-11-20T06:12:05;94173.47;;;17.12;100.00
20622;BME280;10470;42.670;23.354;2022-11-20T06:14:32;94181.44;;;17.21;100.00
20622;BME280;10470;42.670;23.354;2022-11-20T06:16:57;94191.19;;;17.28;100.00
20622;BME280;10470;42.670;23.354;2022-11-20T06:19:23;94183.50;;;17.15;100.00
20622;BME280;10470;42.670;23.354;2022-11-20T06:21:48;94178.97;;;17.12;100.00
20622;BME280;10470;42.670;23.354;2022-11-20T06:24:17;94197.75;;;17.08;100.00
20622;BME280;10470;42.670;23.354;2022-11-20T06:26:43;94190.00;;;17.06;100.00
20622;BME280;10470;42.670;23.354;2022-11-20T06:29:09;94206.50;;;17.12;100.00
20622;BME280;10470;42.670;23.354;2022-11-20T06:31:34;94199.00;;;17.12;100.00
20622;BME280;10470;42.670;23.354;2022-11-20T06:34:03;94204.47;;;17.23;100.00
20622;BME280;10470;42.670;23.354;2022-11-20T06:36:29;94185.44;;;17.25;100.00
20622;BME280;10470;42.670;23.354;2022-11-20T06:38:55;94186.16;;;17.32;100.00
20622;BME280;10470;42.670;23.354;2022-11-20T06:41:21;94187.63;;;17.44;100.00
20622;BME280;10470;42.670;23.354;2022-11-20T06:43:47;94189.16;;;17.39;100.00
20622;BME280;10470;42.670;23.354;2022-11-20T06:46:14;94207.66;;;17.44;100.00
20622;BME280;10470;42.670;23.354;2022-11-20T06:48:42;94206.13;;;17.49;100.00
20622;BME280;10470;42.670;23.354;2022-11-20T06:51:08;94204.88;;;17.50;100.00
20622;BME280;10470;42.670;23.354;2022-11-20T06:53:34;94198.91;;;17.46;100.00
20622;BME280;10470;42.670;23.354;2022-11-20T06:56:00;94203.34;;;17.55;100.00
20622;BME280;10470;42.670;23.354;2022-11-20T06:58:30;94215.59;;;17.65;100.00
20622;BME280;10470;42.670;23.354;2022-11-20T07:01:00;94211.84;;;17.62;100.00
20622;BME280;10470;42.670;23.354;2022-11-20T07:03:26;94221.34;;;17.61;100.00
20622;BME280;10470;42.670;23.354;2022-11-20T07:05:54;94226.63;;;17.59;100.00
20622;BME280;10470;42.670;23.354;2022-11-20T07:08:20;94229.59;;;17.61;100.00
20622;BME280;10470;42.670;23.354;2022-11-20T07:10:45;94219.63;;;17.53;100.00
20622;BME280;10470;42.670;23.354;2022-11-20T07:13:11;94226.63;;;17.59;100.00
20622;BME280;10470;42.670;23.354;2022-11-20T07:15:36;94224.66;;;17.54;100.00
20622;BME280;10470;42.670;23.354;2022-11-20T07:18:02;94224.63;;;17.60;100.00
20622;BME280;10470;42.670;23.354;2022-11-20T07:20:27;94223.13;;;17.53;100.00
20622;BME280;10470;42.670;23.354;2022-11-20T07:22:57;94234.13;;;17.64;100.00
20622;BME280;10470;42.670;23.354;2022-11-20T07:25:24;94240.34;;;17.71;100.00
20622;BME280;10470;42.670;23.354;2022-11-20T07:27:50;94234.06;;;17.81;100.00
20622;BME280;10470;42.670;23.354;2022-11-20T07:30:16;94247.03;;;17.92;100.00
20622;BME280;10470;42.670;23.354;2022-11-20T07:32:42;94240.09;;;17.80;100.00
20622;BME280;10470;42.670;23.354;2022-11-20T07:35:07;94219.34;;;17.62;100.00
20622;BME280;10470;42.670;23.354;2022-11-20T07:37:36;94239.69;;;17.47;100.00
20622;BME280;10470;42.670;23.354;2022-11-20T07:40:01;94222.81;;;17.68;100.00
20622;BME280;10470;42.670;23.354;2022-11-20T07:42:27;94236.09;;;17.64;100.00
20622;BME280;10470;42.670;23.354;2022-11-20T07:44:52;94226.56;;;17.71;100.00
20622;BME280;10470;42.670;23.354;2022-11-20T07:47:18;94240.31;;;17.82;100.00
20622;BME280;10470;42.670;23.354;2022-11-20T07:49:43;94231.81;;;17.74;100.00
20622;BME280;10470;42.670;23.354;2022-11-20T07:52:09;94241.06;;;17.77;100.00
20622;BME280;10470;42.670;23.354;2022-11-20T07:54:34;94239.59;;;17.76;100.00
20622;BME280;10470;42.670;23.354;2022-11-20T07:56:59;94231.56;;;17.78;100.00
20622;BME280;10470;42.670;23.354;2022-11-20T07:59:25;94231.06;;;17.74;100.00
20622;BME280;10470;42.670;23.354;2022-11-20T08:01:50;94230.81;;;17.77;100.00
20622;BME280;10470;42.670;23.354;2022-11-20T08:04:16;94232.06;;;17.76;100.00
20622;BME280;10470;42.670;23.354;2022-11-20T08:06:41;94231.56;;;17.83;100.00
20622;BME280;10470;42.670;23.354;2022-11-20T08:09:07;94239.09;;;17.83;100.00
20622;BME280;10470;42.670;23.354;2022-11-20T08:11:32;94225.56;;;17.74;100.00
20622;BME280;10470;42.670;23.354;2022-11-20T08:14:16;94220.28;;;17.81;100.00
20622;BME280;10470;42.670;23.354;2022-11-20T08:16:44;94223.78;;;17.82;100.00
20622;BME280;10470;42.670;23.354;2022-11-20T08:19:11;94224.00;;;17.89;100.00
20622;BME280;10470;42.670;23.354;2022-11-20T08:21:37;94210.78;;;17.82;100.00
20622;BME280;10470;42.670;23.354;2022-11-20T08:24:02;94227.50;;;17.96;100.00
20622;BME280;10470;42.670;23.354;2022-11-20T08:26:28;94225.53;;;17.85;100.00
20622;BME280;10470;42.670;23.354;2022-11-20T08:28:57;94232.00;;;17.93;100.00
20622;BME280;10470;42.670;23.354;2022-11-20T08:31:24;94232.53;;;17.86;100.00
20622;BME280;10470;42.670;23.354;2022-11-20T08:33:50;94246.22;;;18.03;100.00
20622;BME280;10470;42.670;23.354;2022-11-20T08:36:16;94246.22;;;18.03;100.00
20622;BME280;10470;42.670;23.354;2022-11-20T08:38:42;94240.72;;;18.03;100.00
20622;BME280;10470;42.670;23.354;2022-11-20T08:41:07;94234.91;;;18.12;100.00
20622;BME280;10470;42.670;23.354;2022-11-20T08:43:56;94238.16;;;18.16;100.00
20622;BME280;10470;42.670;23.354;2022-11-20T08:46:31;94247.47;;;18.07;100.00
20622;BME280;10470;42.670;23.354;2022-11-20T08:48:58;94267.28;;;18.00;100.00
20622;BME280;10470;42.670;23.354;2022-11-20T08:51:24;94281.81;;;18.06;100.00
20622;BME280;10470;42.670;23.354;2022-11-20T08:53:49;94265.88;;;17.88;100.00
20622;BME280;10470;42.670;23.354;2022-11-20T08:56:15;94290.03;;;18.18;100.00
20622;BME280;10470;42.670;23.354;2022-11-20T08:58:40;94285.97;;;18.24;100.00
20622;BME280;10470;42.670;23.354;2022-11-20T09:01:06;94264.28;;;18.04;100.00
20622;BME280;10470;42.670;23.354;2022-11-20T09:03:32;94277.28;;;18.09;100.00
20622;BME280;10470;42.670;23.354;2022-11-20T09:06:03;94278.28;;;18.11;100.00
20622;BME280;10470;42.670;23.354;2022-11-20T09:08:30;94281.50;;;18.16;100.00
20622;BME280;10470;42.670;23.354;2022-11-20T09:10:57;94290.31;;;18.14;100.00
20622;BME280;10470;42.670;23.354;2022-11-20T09:13:24;94286.66;;;17.89;100.00
20622;BME280;10470;42.670;23.354;2022-11-20T09:15:58;94283.22;;;17.60;100.00
20622;BME280;10470;42.670;23.354;2022-11-20T09:18:25;94285.69;;;17.75;100.00
20622;BME280;10470;42.670;23.354;2022-11-20T09:20:51;94284.19;;;17.80;100.00
20622;BME280;10470;42.670;23.354;2022-11-20T09:23:16;94281.72;;;17.59;100.00
20622;BME280;10470;42.670;23.354;2022-11-20T09:25:42;94304.31;;;17.30;100.00
20622;BME280;10470;42.670;23.354;2022-11-20T09:28:08;94296.38;;;16.98;100.00
20622;BME280;10470;42.670;23.354;2022-11-20T09:30:33;94282.34;;;17.07;100.00
20622;BME280;10470;42.670;23.354;2022-11-20T09:32:59;94269.59;;;16.76;100.00
20622;BME280;10470;42.670;23.354;2022-11-20T09:35:24;94276.59;;;16.83;100.00
20622;BME280;10470;42.670;23.354;2022-11-20T09:37:50;94276.09;;;16.95;100.00
20622;BME280;10470;42.670;23.354;2022-11-20T09:40:24;94253.06;;;16.65;100.00
20622;BME280;10470;42.670;23.354;2022-11-20T09:46:03;94243.53;;;17.16;100.00
20622;BME280;10470;42.670;23.354;2022-11-20T09:56:39;94216.50;;;17.09;100.00
20622;BME280;10470;42.670;23.354;2022-11-20T09:59:08;94194.00;;;17.11;100.00
20622;BME280;10470;42.670;23.354;2022-11-20T10:01:39;94207.97;;;17.24;100.00
20622;BME280;10470;42.670;23.354;2022-11-20T10:04:24;94206.16;;;17.43;100.00
20622;BME280;10470;42.670;23.354;2022-11-20T10:09:37;94206.38;;;17.51;100.00
20622;BME280;10470;42.670;23.354;2022-11-20T10:12:21;94206.47;;;17.23;100.00
20622;BME280;10470;42.670;23.354;2022-11-20T10:20:14;94200.88;;;17.45;100.00
20622;BME280;10470;42.670;23.354;2022-11-20T10:28:21;94187.31;;;16.78;100.00
20622;BME280;10470;42.670;23.354;2022-11-20T10:30:57;94193.53;;;16.95;100.00
20622;BME280;10470;42.670;23.354;2022-11-20T10:33:27;94185.00;;;17.05;100.00
20622;BME280;10470;42.670;23.354;2022-11-20T10:35:56;94183.28;;;16.90;100.00
20622;BME280;10470;42.670;23.354;2022-11-20T10:38:35;94185.91;;;17.30;100.00
20622;BME280;10470;42.670;23.354;2022-11-20T10:41:03;94190.19;;;17.31;100.00
20622;BME280;10470;42.670;23.354;2022-11-20T10:43:52;94201.00;;;17.06;100.00
20622;BME280;10470;42.670;23.354;2022-11-20T10:46:20;94205.31;;;16.85;100.00
20622;BME280;10470;42.670;23.354;2022-11-20T10:48:48;94201.06;;;16.84;100.00
20622;BME280;10470;42.670;23.354;2022-11-20T10:53:53;94184.78;;;16.91;100.00
20622;BME280;10470;42.670;23.354;2022-11-20T10:59:18;94198.56;;;16.46;100.00
20622;BME280;10470;42.670;23.354;2022-11-20T11:01:50;94205.53;;;16.75;100.00
20622;BME280;10470;42.670;23.354;2022-11-20T11:04:34;94210.28;;;16.75;100.00
20622;BME280;10470;42.670;23.354;2022-11-20T11:10:16;94232.06;;;16.62;100.00
20622;BME280;10470;42.670;23.354;2022-11-20T11:12:47;94238.31;;;16.45;100.00
20622;BME280;10470;42.670;23.354;2022-11-20T11:15:29;94257.59;;;15.63;100.00
20622;BME280;10470;42.670;23.354;2022-11-20T11:17:56;94260.78;;;15.50;100.00
20622;BME280;10470;42.670;23.354;2022-11-20T11:20:24;94254.97;;;15.31;100.00
20622;BME280;10470;42.670;23.354;2022-11-20T11:25:33;94263.06;;;15.08;100.00
20622;BME280;10470;42.670;23.354;2022-11-20T11:28:04;94244.25;;;14.90;100.00
20622;BME280;10470;42.670;23.354;2022-11-20T11:30:41;94227.22;;;14.80;100.00
20622;BME280;10470;42.670;23.354;2022-11-20T11:33:26;94237.84;;;14.67;100.00
20622;BME280;10470;42.670;23.354;2022-11-20T11:35:57;94228.66;;;14.70;100.00
20622;BME280;10470;42.670;23.354;2022-11-20T11:38:42;94232.06;;;14.59;100.00
20622;BME280;10470;42.670;23.354;2022-11-20T11:41:14;94240.34;;;14.65;100.00
20622;BME280;10470;42.670;23.354;2022-11-20T11:43:51;94225.06;;;14.53;100.00
20622;BME280;10470;42.670;23.354;2022-11-20T11:46:36;94231.28;;;14.53;100.00
20622;BME280;10470;42.670;23.354;2022-11-20T11:54:28;94223.84;;;14.59;100.00
20622;BME280;10470;42.670;23.354;2022-11-20T11:56:59;94222.00;;;14.51;100.00
20622;BME280;10470;42.670;23.354;2022-11-20T12:07:43;94194.00;;;14.73;100.00
20622;BME280;10470;42.670;23.354;2022-11-20T12:12:49;94196.78;;;14.78;100.00
20622;BME280;10470;42.670;23.354;2022-11-20T12:15:25;94206.44;;;14.68;100.00
20622;BME280;10470;42.670;23.354;2022-11-20T12:17:51;94218.09;;;14.57;100.00
20622;BME280;10470;42.670;23.354;2022-11-20T12:20:16;94217.94;;;14.40;100.00
20622;BME280;10470;42.670;23.354;2022-11-20T12:23:14;94211.09;;;14.25;100.00
20622;BME280;10470;42.670;23.354;2022-11-20T12:25:46;94193.75;;;14.39;100.00
20622;BME280;10470;42.670;23.354;2022-11-20T12:39:41;94182.16;;;13.92;100.00
20622;BME280;10470;42.670;23.354;2022-11-20T12:50:37;94122.63;;;14.24;100.00
20622;BME280;10470;42.670;23.354;2022-11-20T13:06:45;94112.66;;;13.58;100.00
20622;BME280;10470;42.670;23.354;2022-11-20T13:09:13;94098.53;;;13.65;100.00
20622;BME280;10470;42.670;23.354;2022-11-20T13:16:57;94131.38;;;13.91;100.00
20622;BME280;10470;42.670;23.354;2022-11-20T13:19:25;94157.56;;;13.97;100.00
20622;BME280;10470;42.670;23.354;2022-11-20T13:21:52;94165.34;;;13.79;100.00
20622;BME280;10470;42.670;23.354;2022-11-20T13:29:43;94115.59;;;13.80;100.00
20622;BME280;10470;42.670;23.354;2022-11-20T13:32:16;94185.88;;;13.63;100.00
20622;BME280;10470;42.670;23.354;2022-11-20T13:35:00;94203.38;;;13.71;100.00
20622;BME280;10470;42.670;23.354;2022-11-20T13:42:46;94146.84;;;13.68;100.00
20622;BME280;10470;42.670;23.354;2022-11-20T13:45:30;94163.91;;;13.83;100.00
20622;BME280;10470;42.670;23.354;2022-11-20T13:47:58;94124.75;;;13.77;100.00
20622;BME280;10470;42.670;23.354;2022-11-20T13:50:53;94154.69;;;13.81;100.00
20622;BME280;10470;42.670;23.354;2022-11-20T13:53:42;94163.47;;;13.90;100.00
20622;BME280;10470;42.670;23.354;2022-11-20T13:56:24;94143.38;;;13.99;100.00
20622;BME280;10470;42.670;23.354;2022-11-20T14:01:28;94185.50;;;13.75;100.00
20622;BME280;10470;42.670;23.354;2022-11-20T14:03:55;94168.47;;;13.92;100.00
20622;BME280;10470;42.670;23.354;2022-11-20T14:08:52;94174.81;;;14.04;100.00
20622;BME280;10470;42.670;23.354;2022-11-20T14:16:22;94147.81;;;13.91;100.00
20622;BME280;10470;42.670;23.354;2022-11-20T14:18:47;94142.00;;;14.15;100.00
20622;BME280;10470;42.670;23.354;2022-11-20T14:21:28;94147.66;;;14.06;100.00
20622;BME280;10470;42.670;23.354;2022-11-20T14:24:18;94154.47;;;14.16;100.00
20622;BME280;10470;42.670;23.354;2022-11-20T14:26:45;94130.16;;;13.97;100.00
20622;BME280;10470;42.670;23.354;2022-11-20T14:29:16;94143.09;;;13.97;100.00
20622;BME280;10470;42.670;23.354;2022-11-20T14:31:47;94135.88;;;13.94;100.00
20622;BME280;10470;42.670;23.354;2022-11-20T14:34:16;94139.81;;;13.93;100.00
20622;BME280;10470;42.670;23.354;2022-11-20T14:36:43;94153.50;;;14.19;100.00
20622;BME280;10470;42.670;23.354;2022-11-20T14:39:12;94137.41;;;14.01;100.00